sensor_id;sensor_type;location;lat;lon;timestamp;temperature;humidity
72202;SHT30;60105;54.956;73.412;2023-07-20T00:00:34;18.56;84.91
72202;SHT30;60105;54.956;73.412;2023-07-20T00:03:36;18.55;85.23
72202;SHT30;60105;54.956;73.412;2023-07-20T00:06:37;18.54;85.36
72202;SHT30;60105;54.956;73.412;2023-07-20T00:09:41;18.51;85.28
72202;SHT30;60105;54.956;73.412;2023-07-20T00:12:44;18.48;85.52
72202;SHT30;60105;54.956;73.412;2023-07-20T00:15:48;18.45;85.54
72202;SHT30;60105;54.956;73.412;2023-07-20T00:18:50;18.49;85.65
72202;SHT30;60105;54.956;73.412;2023-07-20T00:22:26;18.61;85.58
72202;SHT30;60105;54.956;73.412;2023-07-20T00:25:27;18.66;85.43
72202;SHT30;60105;54.956;73.412;2023-07-20T00:28:28;18.75;85.47
72202;SHT30;60105;54.956;73.412;2023-07-20T00:31:30;18.75;85.53
72202;SHT30;60105;54.956;73.412;2023-07-20T00:34:32;18.77;85.55
72202;SHT30;60105;54.956;73.412;2023-07-20T00:37:34;18.82;85.47
72202;SHT30;60105;54.956;73.412;2023-07-20T00:40:39;18.84;85.42
72202;SHT30;60105;54.956;73.412;2023-07-20T00:43:41;18.92;85.15
72202;SHT30;60105;54.956;73.412;2023-07-20T00:47:27;18.96;85.01
72202;SHT30;60105;54.956;73.412;2023-07-20T00:50:28;19.03;84.89
72202;SHT30;60105;54.956;73.412;2023-07-20T00:53:30;19.06;84.87
72202;SHT30;60105;54.956;73.412;2023-07-20T00:56:32;19.16;84.76
72202;SHT30;60105;54.956;73.412;2023-07-20T00:59:36;19.17;84.53
72202;SHT30;60105;54.956;73.412;2023-07-20T01:02:38;19.23;84.56
72202;SHT30;60105;54.956;73.412;2023-07-20T01:05:56;19.28;84.57
72202;SHT30;60105;54.956;73.412;2023-07-20T01:09:17;19.31;84.45
72202;SHT30;60105;54.956;73.412;2023-07-20T01:12:26;19.41;84.21
72202;SHT30;60105;54.956;73.412;2023-07-20T01:15:29;19.43;84.12
72202;SHT30;60105;54.956;73.412;2023-07-20T01:18:30;19.46;84.14
72202;SHT30;60105;54.956;73.412;2023-07-20T01:21:43;19.53;83.92
72202;SHT30;60105;54.956;73.412;2023-07-20T01:31:38;19.78;83.22
72202;SHT30;60105;54.956;73.412;2023-07-20T01:34:41;19.85;82.74
72202;SHT30;60105;54.956;73.412;2023-07-20T01:37:44;19.91;82.79
72202;SHT30;60105;54.956;73.412;2023-07-20T01:40:47;19.94;82.53
72202;SHT30;60105;54.956;73.412;2023-07-20T01:43:49;20.02;82.76
72202;SHT30;60105;54.956;73.412;2023-07-20T01:47:26;20.11;82.48
72202;SHT30;60105;54.956;73.412;2023-07-20T01:50:27;20.16;82.23
72202;SHT30;60105;54.956;73.412;2023-07-20T01:53:29;20.23;82.02
72202;SHT30;60105;54.956;73.412;2023-07-20T01:56:30;20.32;81.70
72202;SHT30;60105;54.956;73.412;2023-07-20T01:59:31;20.39;81.53
72202;SHT30;60105;54.956;73.412;2023-07-20T02:02:33;20.47;81.44
72202;SHT30;60105;54.956;73.412;2023-07-20T02:05:34;20.50;80.89
72202;SHT30;60105;54.956;73.412;2023-07-20T02:08:35;20.60;80.93
72202;SHT30;60105;54.956;73.412;2023-07-20T02:11:36;20.66;80.49
72202;SHT30;60105;54.956;73.412;2023-07-20T02:14:38;20.73;80.51
72202;SHT30;60105;54.956;73.412;2023-07-20T02:17:40;20.81;79.99
72202;SHT30;60105;54.956;73.412;2023-07-20T02:21:02;20.90;79.75
72202;SHT30;60105;54.956;73.412;2023-07-20T02:24:03;20.97;79.81
72202;SHT30;60105;54.956;73.412;2023-07-20T02:27:25;21.02;79.56
72202;SHT30;60105;54.956;73.412;2023-07-20T02:30:27;21.10;79.04
72202;SHT30;60105;54.956;73.412;2023-07-20T02:33:29;21.19;78.38
72202;SHT30;60105;54.956;73.412;2023-07-20T02:36:31;21.28;78.80
72202;SHT30;60105;54.956;73.412;2023-07-20T02:39:33;21.32;77.97
72202;SHT30;60105;54.956;73.412;2023-07-20T02:42:35;21.42;78.04
72202;SHT30;60105;54.956;73.412;2023-07-20T02:45:40;21.49;77.90
72202;SHT30;60105;54.956;73.412;2023-07-20T02:48:41;21.59;77.29
72202;SHT30;60105;54.956;73.412;2023-07-20T02:52:26;21.67;77.57
72202;SHT30;60105;54.956;73.412;2023-07-20T02:55:27;21.78;77.68
72202;SHT30;60105;54.956;73.412;2023-07-20T02:58:28;21.87;76.80
72202;SHT30;60105;54.956;73.412;2023-07-20T03:01:31;21.99;76.70
72202;SHT30;60105;54.956;73.412;2023-07-20T03:04:32;22.07;76.42
72202;SHT30;60105;54.956;73.412;2023-07-20T03:07:34;22.16;76.14
72202;SHT30;60105;54.956;73.412;2023-07-20T03:10:39;22.22;75.54
72202;SHT30;60105;54.956;73.412;2023-07-20T03:13:44;22.33;75.27
72202;SHT30;60105;54.956;73.412;2023-07-20T03:17:26;22.41;74.38
72202;SHT30;60105;54.956;73.412;2023-07-20T03:20:27;22.49;73.85
72202;SHT30;60105;54.956;73.412;2023-07-20T03:23:28;22.59;73.60
72202;SHT30;60105;54.956;73.412;2023-07-20T03:26:30;22.64;73.42
72202;SHT30;60105;54.956;73.412;2023-07-20T03:29:32;22.71;73.29
72202;SHT30;60105;54.956;73.412;2023-07-20T03:32:34;22.81;73.26
72202;SHT30;60105;54.956;73.412;2023-07-20T03:35:37;22.95;72.22
72202;SHT30;60105;54.956;73.412;2023-07-20T03:38:39;23.03;71.93
72202;SHT30;60105;54.956;73.412;2023-07-20T03:41:40;23.12;70.72
72202;SHT30;60105;54.956;73.412;2023-07-20T03:44:41;23.19;71.11
72202;SHT30;60105;54.956;73.412;2023-07-20T03:47:43;23.28;70.62
72202;SHT30;60105;54.956;73.412;2023-07-20T03:50:47;23.36;70.19
72202;SHT30;60105;54.956;73.412;2023-07-20T03:53:48;23.46;69.21
72202;SHT30;60105;54.956;73.412;2023-07-20T03:57:26;23.58;68.41
72202;SHT30;60105;54.956;73.412;2023-07-20T04:00:27;23.65;68.54
72202;SHT30;60105;54.956;73.412;2023-07-20T04:03:28;23.77;68.38
72202;SHT30;60105;54.956;73.412;2023-07-20T04:06:30;23.84;66.90
72202;SHT30;60105;54.956;73.412;2023-07-20T04:09:31;23.92;66.96
72202;SHT30;60105;54.956;73.412;2023-07-20T04:12:33;24.02;65.87
72202;SHT30;60105;54.956;73.412;2023-07-20T04:15:34;24.11;66.38
72202;SHT30;60105;54.956;73.412;2023-07-20T04:18:36;24.16;65.37
72202;SHT30;60105;54.956;73.412;2023-07-20T04:21:40;24.29;66.52
72202;SHT30;60105;54.956;73.412;2023-07-20T04:24:42;24.42;65.61
72202;SHT30;60105;54.956;73.412;2023-07-20T04:27:44;24.49;66.02
72202;SHT30;60105;54.956;73.412;2023-07-20T04:30:49;24.59;64.89
72202;SHT30;60105;54.956;73.412;2023-07-20T04:33:51;24.66;64.22
72202;SHT30;60105;54.956;73.412;2023-07-20T04:36:54;24.70;63.56
72202;SHT30;60105;54.956;73.412;2023-07-20T04:39:57;24.81;63.76
72202;SHT30;60105;54.956;73.412;2023-07-20T04:42:58;24.91;63.18
72202;SHT30;60105;54.956;73.412;2023-07-20T04:46:00;24.98;62.50
72202;SHT30;60105;54.956;73.412;2023-07-20T04:49:05;25.10;63.90
72202;SHT30;60105;54.956;73.412;2023-07-20T04:52:26;25.17;63.33
72202;SHT30;60105;54.956;73.412;2023-07-20T04:55:27;25.22;59.53
72202;SHT30;60105;54.956;73.412;2023-07-20T04:58:29;25.29;59.04
72202;SHT30;60105;54.956;73.412;2023-07-20T05:01:31;25.35;59.96
72202;SHT30;60105;54.956;73.412;2023-07-20T05:04:32;25.39;58.38
72202;SHT30;60105;54.956;73.412;2023-07-20T05:07:34;25.43;58.42
72202;SHT30;60105;54.956;73.412;2023-07-20T05:10:35;25.52;57.45
72202;SHT30;60105;54.956;73.412;2023-07-20T05:13:37;25.59;58.28
72202;SHT30;60105;54.956;73.412;2023-07-20T05:16:38;25.62;57.32
72202;SHT30;60105;54.956;73.412;2023-07-20T05:19:41;25.69;56.84
72202;SHT30;60105;54.956;73.412;2023-07-20T05:22:43;25.78;56.68
72202;SHT30;60105;54.956;73.412;2023-07-20T05:25:44;25.85;57.39
72202;SHT30;60105;54.956;73.412;2023-07-20T05:28:46;25.96;56.93
72202;SHT30;60105;54.956;73.412;2023-07-20T05:32:26;26.09;55.78
72202;SHT30;60105;54.956;73.412;2023-07-20T05:35:27;26.10;54.79
72202;SHT30;60105;54.956;73.412;2023-07-20T05:38:28;26.16;55.12
72202;SHT30;60105;54.956;73.412;2023-07-20T05:41:36;26.16;54.82
72202;SHT30;60105;54.956;73.412;2023-07-20T05:44:37;26.14;54.43
72202;SHT30;60105;54.956;73.412;2023-07-20T05:47:39;26.10;54.02
72202;SHT30;60105;54.956;73.412;2023-07-20T05:50:42;26.13;54.75
72202;SHT30;60105;54.956;73.412;2023-07-20T05:53:46;26.13;53.96
72202;SHT30;60105;54.956;73.412;2023-07-20T05:57:26;26.18;53.13
72202;SHT30;60105;54.956;73.412;2023-07-20T06:00:27;26.20;52.42
72202;SHT30;60105;54.956;73.412;2023-07-20T06:03:28;26.21;51.82
72202;SHT30;60105;54.956;73.412;2023-07-20T06:06:30;26.26;51.32
72202;SHT30;60105;54.956;73.412;2023-07-20T06:09:31;26.34;52.09
72202;SHT30;60105;54.956;73.412;2023-07-20T06:12:32;26.44;51.92
72202;SHT30;60105;54.956;73.412;2023-07-20T06:15:35;26.40;51.17
72202;SHT30;60105;54.956;73.412;2023-07-20T06:18:37;26.41;52.48
72202;SHT30;60105;54.956;73.412;2023-07-20T06:21:39;26.43;53.68
72202;SHT30;60105;54.956;73.412;2023-07-20T06:24:41;26.49;52.34
72202;SHT30;60105;54.956;73.412;2023-07-20T06:27:43;26.48;52.39
72202;SHT30;60105;54.956;73.412;2023-07-20T06:30:44;26.54;52.26
72202;SHT30;60105;54.956;73.412;2023-07-20T06:33:45;26.59;53.58
72202;SHT30;60105;54.956;73.412;2023-07-20T06:36:54;26.64;52.24
72202;SHT30;60105;54.956;73.412;2023-07-20T06:39:55;26.65;52.07
72202;SHT30;60105;54.956;73.412;2023-07-20T06:42:57;26.68;52.56
72202;SHT30;60105;54.956;73.412;2023-07-20T06:45:59;26.75;52.51
72202;SHT30;60105;54.956;73.412;2023-07-20T06:49:00;26.81;51.42
72202;SHT30;60105;54.956;73.412;2023-07-20T06:52:25;26.81;51.17
72202;SHT30;60105;54.956;73.412;2023-07-20T06:55:27;26.94;52.35
72202;SHT30;60105;54.956;73.412;2023-07-20T06:58:28;27.06;50.39
72202;SHT30;60105;54.956;73.412;2023-07-20T07:01:29;27.09;49.05
72202;SHT30;60105;54.956;73.412;2023-07-20T07:04:31;27.23;49.91
72202;SHT30;60105;54.956;73.412;2023-07-20T07:07:34;27.26;50.50
72202;SHT30;60105;54.956;73.412;2023-07-20T07:10:36;27.46;49.57
72202;SHT30;60105;54.956;73.412;2023-07-20T07:13:43;27.65;49.54
72202;SHT30;60105;54.956;73.412;2023-07-20T07:17:26;27.55;50.03
72202;SHT30;60105;54.956;73.412;2023-07-20T07:20:27;27.88;50.69
72202;SHT30;60105;54.956;73.412;2023-07-20T07:23:28;27.73;47.50
72202;SHT30;60105;54.956;73.412;2023-07-20T07:26:30;27.92;48.54
72202;SHT30;60105;54.956;73.412;2023-07-20T07:29:31;27.83;49.73
72202;SHT30;60105;54.956;73.412;2023-07-20T07:32:32;27.92;48.84
72202;SHT30;60105;54.956;73.412;2023-07-20T07:35:34;27.81;49.98
72202;SHT30;60105;54.956;73.412;2023-07-20T07:38:35;28.11;48.96
72202;SHT30;60105;54.956;73.412;2023-07-20T07:41:37;28.42;48.09
72202;SHT30;60105;54.956;73.412;2023-07-20T07:44:39;28.51;47.70
72202;SHT30;60105;54.956;73.412;2023-07-20T07:47:40;28.70;47.56
72202;SHT30;60105;54.956;73.412;2023-07-20T07:50:41;28.73;45.22
72202;SHT30;60105;54.956;73.412;2023-07-20T07:53:43;28.41;46.53
72202;SHT30;60105;54.956;73.412;2023-07-20T07:57:26;28.18;45.95
72202;SHT30;60105;54.956;73.412;2023-07-20T08:00:27;28.02;47.17
72202;SHT30;60105;54.956;73.412;2023-07-20T08:03:28;27.85;47.51
72202;SHT30;60105;54.956;73.412;2023-07-20T08:06:30;27.95;47.29
72202;SHT30;60105;54.956;73.412;2023-07-20T08:09:32;28.00;48.24
72202;SHT30;60105;54.956;73.412;2023-07-20T08:12:34;28.05;47.30
72202;SHT30;60105;54.956;73.412;2023-07-20T08:15:35;28.04;48.22
72202;SHT30;60105;54.956;73.412;2023-07-20T08:18:37;28.19;47.94
72202;SHT30;60105;54.956;73.412;2023-07-20T08:21:38;28.45;45.76
72202;SHT30;60105;54.956;73.412;2023-07-20T08:24:40;28.73;44.88
72202;SHT30;60105;54.956;73.412;2023-07-20T08:27:42;28.83;43.77
72202;SHT30;60105;54.956;73.412;2023-07-20T08:30:45;28.94;43.72
72202;SHT30;60105;54.956;73.412;2023-07-20T08:33:46;29.04;44.92
72202;SHT30;60105;54.956;73.412;2023-07-20T08:36:54;29.04;43.70
72202;SHT30;60105;54.956;73.412;2023-07-20T08:39:56;28.86;45.10
72202;SHT30;60105;54.956;73.412;2023-07-20T08:43:02;28.49;44.64
72202;SHT30;60105;54.956;73.412;2023-07-20T08:46:24;28.59;43.72
72202;SHT30;60105;54.956;73.412;2023-07-20T08:49:27;28.59;45.57
72202;SHT30;60105;54.956;73.412;2023-07-20T08:52:29;28.86;44.40
72202;SHT30;60105;54.956;73.412;2023-07-20T08:55:30;28.72;44.09
72202;SHT30;60105;54.956;73.412;2023-07-20T08:58:34;28.53;43.54
72202;SHT30;60105;54.956;73.412;2023-07-20T09:01:39;28.43;44.39
72202;SHT30;60105;54.956;73.412;2023-07-20T09:04:40;28.41;43.77
72202;SHT30;60105;54.956;73.412;2023-07-20T09:07:41;28.70;43.73
72202;SHT30;60105;54.956;73.412;2023-07-20T09:10:47;28.91;42.37
72202;SHT30;60105;54.956;73.412;2023-07-20T09:14:03;29.14;42.90
72202;SHT30;60105;54.956;73.412;2023-07-20T09:17:25;29.44;40.29
72202;SHT30;60105;54.956;73.412;2023-07-20T09:20:27;29.30;40.41
72202;SHT30;60105;54.956;73.412;2023-07-20T09:23:36;29.14;41.49
72202;SHT30;60105;54.956;73.412;2023-07-20T09:26:42;28.96;40.66
72202;SHT30;60105;54.956;73.412;2023-07-20T09:29:52;28.84;42.29
72202;SHT30;60105;54.956;73.412;2023-07-20T09:32:55;28.70;43.58
72202;SHT30;60105;54.956;73.412;2023-07-20T09:36:02;28.59;42.86
72202;SHT30;60105;54.956;73.412;2023-07-20T09:39:04;28.62;43.58
72202;SHT30;60105;54.956;73.412;2023-07-20T09:42:25;28.73;43.16
72202;SHT30;60105;54.956;73.412;2023-07-20T09:45:32;28.99;42.68
72202;SHT30;60105;54.956;73.412;2023-07-20T09:48:34;29.06;42.29
72202;SHT30;60105;54.956;73.412;2023-07-20T09:51:36;29.15;43.22
72202;SHT30;60105;54.956;73.412;2023-07-20T09:54:38;29.49;41.17
72202;SHT30;60105;54.956;73.412;2023-07-20T09:57:40;29.61;40.66
72202;SHT30;60105;54.956;73.412;2023-07-20T10:00:42;29.70;40.66
72202;SHT30;60105;54.956;73.412;2023-07-20T10:03:54;29.45;42.30
72202;SHT30;60105;54.956;73.412;2023-07-20T10:06:59;29.62;43.49
72202;SHT30;60105;54.956;73.412;2023-07-20T10:10:01;29.59;42.03
72202;SHT30;60105;54.956;73.412;2023-07-20T10:13:10;29.35;43.35
72202;SHT30;60105;54.956;73.412;2023-07-20T10:16:35;29.34;44.29
72202;SHT30;60105;54.956;73.412;2023-07-20T10:19:50;29.25;43.71
72202;SHT30;60105;54.956;73.412;2023-07-20T10:22:54;29.12;44.26
72202;SHT30;60105;54.956;73.412;2023-07-20T10:25:56;29.06;44.58
72202;SHT30;60105;54.956;73.412;2023-07-20T10:28:59;29.21;43.25
72202;SHT30;60105;54.956;73.412;2023-07-20T10:32:26;29.20;44.06
72202;SHT30;60105;54.956;73.412;2023-07-20T10:35:27;29.10;43.87
72202;SHT30;60105;54.956;73.412;2023-07-20T10:42:33;28.87;43.65
72202;SHT30;60105;54.956;73.412;2023-07-20T10:45:53;28.80;43.68
72202;SHT30;60105;54.956;73.412;2023-07-20T10:49:05;28.84;44.79
72202;SHT30;60105;54.956;73.412;2023-07-20T10:52:25;28.84;46.00
72202;SHT30;60105;54.956;73.412;2023-07-20T10:55:27;28.80;43.98
72202;SHT30;60105;54.956;73.412;2023-07-20T10:58:28;28.79;44.91
72202;SHT30;60105;54.956;73.412;2023-07-20T11:01:31;28.81;44.11
72202;SHT30;60105;54.956;73.412;2023-07-20T11:04:43;28.90;44.58
72202;SHT30;60105;54.956;73.412;2023-07-20T11:07:53;28.72;47.88
72202;SHT30;60105;54.956;73.412;2023-07-20T11:11:27;28.49;49.84
72202;SHT30;60105;54.956;73.412;2023-07-20T11:14:29;28.28;50.33
72202;SHT30;60105;54.956;73.412;2023-07-20T11:17:33;28.39;50.12
72202;SHT30;60105;54.956;73.412;2023-07-20T11:20:34;28.63;50.33
72202;SHT30;60105;54.956;73.412;2023-07-20T11:23:43;28.66;49.50
72202;SHT30;60105;54.956;73.412;2023-07-20T11:27:26;28.52;49.83
72202;SHT30;60105;54.956;73.412;2023-07-20T11:30:33;28.22;50.90
72202;SHT30;60105;54.956;73.412;2023-07-20T11:33:34;27.91;51.11
72202;SHT30;60105;54.956;73.412;2023-07-20T11:36:35;27.65;50.19
72202;SHT30;60105;54.956;73.412;2023-07-20T11:39:37;27.42;52.49
72202;SHT30;60105;54.956;73.412;2023-07-20T11:42:41;27.77;50.40
72202;SHT30;60105;54.956;73.412;2023-07-20T11:45:44;27.80;49.40
72202;SHT30;60105;54.956;73.412;2023-07-20T11:48:45;27.80;51.54
72202;SHT30;60105;54.956;73.412;2023-07-20T11:52:25;28.12;49.51
72202;SHT30;60105;54.956;73.412;2023-07-20T11:55:29;28.46;47.66
72202;SHT30;60105;54.956;73.412;2023-07-20T11:58:30;28.31;48.58
72202;SHT30;60105;54.956;73.412;2023-07-20T12:01:31;28.09;50.63
72202;SHT30;60105;54.956;73.412;2023-07-20T12:04:35;28.09;50.34
72202;SHT30;60105;54.956;73.412;2023-07-20T12:07:38;28.33;48.76
72202;SHT30;60105;54.956;73.412;2023-07-20T12:10:41;28.48;47.66
72202;SHT30;60105;54.956;73.412;2023-07-20T12:13:45;28.55;49.87
72202;SHT30;60105;54.956;73.412;2023-07-20T12:17:25;28.28;51.06
72202;SHT30;60105;54.956;73.412;2023-07-20T12:20:36;27.98;51.09
72202;SHT30;60105;54.956;73.412;2023-07-20T12:23:40;27.76;51.35
72202;SHT30;60105;54.956;73.412;2023-07-20T12:27:28;27.44;52.35
72202;SHT30;60105;54.956;73.412;2023-07-20T12:30:29;27.53;51.34
72202;SHT30;60105;54.956;73.412;2023-07-20T12:33:30;27.87;50.99
72202;SHT30;60105;54.956;73.412;2023-07-20T12:36:32;28.06;49.92
72202;SHT30;60105;54.956;73.412;2023-07-20T12:39:33;28.15;50.03
72202;SHT30;60105;54.956;73.412;2023-07-20T12:42:35;28.18;50.57
72202;SHT30;60105;54.956;73.412;2023-07-20T12:45:36;28.25;50.30
72202;SHT30;60105;54.956;73.412;2023-07-20T12:48:37;28.29;49.41
72202;SHT30;60105;54.956;73.412;2023-07-20T12:51:39;28.31;49.01
72202;SHT30;60105;54.956;73.412;2023-07-20T12:54:40;28.41;50.34
72202;SHT30;60105;54.956;73.412;2023-07-20T12:57:42;28.32;47.84
72202;SHT30;60105;54.956;73.412;2023-07-20T13:00:43;28.33;51.63
72202;SHT30;60105;54.956;73.412;2023-07-20T13:03:44;28.36;51.30
72202;SHT30;60105;54.956;73.412;2023-07-20T13:06:54;28.32;49.70
72202;SHT30;60105;54.956;73.412;2023-07-20T13:09:55;28.31;48.54
72202;SHT30;60105;54.956;73.412;2023-07-20T13:12:56;28.33;49.57
72202;SHT30;60105;54.956;73.412;2023-07-20T13:15:58;28.35;49.72
72202;SHT30;60105;54.956;73.412;2023-07-20T13:18:59;28.19;45.88
72202;SHT30;60105;54.956;73.412;2023-07-20T13:22:25;28.11;45.98
72202;SHT30;60105;54.956;73.412;2023-07-20T13:25:26;28.12;50.37
72202;SHT30;60105;54.956;73.412;2023-07-20T13:28:29;28.06;49.27
72202;SHT30;60105;54.956;73.412;2023-07-20T13:31:31;28.04;47.48
72202;SHT30;60105;54.956;73.412;2023-07-20T13:34:32;28.11;49.09
72202;SHT30;60105;54.956;73.412;2023-07-20T13:37:34;28.00;49.02
72202;SHT30;60105;54.956;73.412;2023-07-20T13:40:35;27.91;49.55
72202;SHT30;60105;54.956;73.412;2023-07-20T13:43:38;27.97;49.44
72202;SHT30;60105;54.956;73.412;2023-07-20T13:46:39;28.16;49.58
72202;SHT30;60105;54.956;73.412;2023-07-20T13:49:41;28.52;49.24
72202;SHT30;60105;54.956;73.412;2023-07-20T13:52:42;28.39;48.71
72202;SHT30;60105;54.956;73.412;2023-07-20T13:55:44;28.73;49.30
72202;SHT30;60105;54.956;73.412;2023-07-20T13:58:45;29.70;47.98
72202;SHT30;60105;54.956;73.412;2023-07-20T14:02:26;30.40;44.56
72202;SHT30;60105;54.956;73.412;2023-07-20T14:05:27;29.42;46.70
72202;SHT30;60105;54.956;73.412;2023-07-20T14:08:29;28.69;47.86
72202;SHT30;60105;54.956;73.412;2023-07-20T14:11:31;28.89;47.18
72202;SHT30;60105;54.956;73.412;2023-07-20T14:14:32;28.86;47.56
72202;SHT30;60105;54.956;73.412;2023-07-20T14:17:33;29.12;47.11
72202;SHT30;60105;54.956;73.412;2023-07-20T14:20:34;28.38;49.00
72202;SHT30;60105;54.956;73.412;2023-07-20T14:23:36;27.92;50.17
72202;SHT30;60105;54.956;73.412;2023-07-20T14:26:37;27.67;51.53
72202;SHT30;60105;54.956;73.412;2023-07-20T14:29:50;27.44;51.83
72202;SHT30;60105;54.956;73.412;2023-07-20T14:32:52;27.27;51.82
72202;SHT30;60105;54.956;73.412;2023-07-20T14:35:53;27.12;52.09
72202;SHT30;60105;54.956;73.412;2023-07-20T14:38:55;26.98;52.91
72202;SHT30;60105;54.956;73.412;2023-07-20T14:42:25;26.84;53.36
72202;SHT30;60105;54.956;73.412;2023-07-20T14:45:27;26.71;54.09
72202;SHT30;60105;54.956;73.412;2023-07-20T14:48:28;26.57;54.01
72202;SHT30;60105;54.956;73.412;2023-07-20T14:51:30;26.47;53.79
72202;SHT30;60105;54.956;73.412;2023-07-20T14:54:34;26.38;54.67
72202;SHT30;60105;54.956;73.412;2023-07-20T14:57:36;26.23;54.31
72202;SHT30;60105;54.956;73.412;2023-07-20T15:00:38;26.14;54.62
72202;SHT30;60105;54.956;73.412;2023-07-20T15:03:39;26.24;54.74
72202;SHT30;60105;54.956;73.412;2023-07-20T15:06:41;26.27;54.56
72202;SHT30;60105;54.956;73.412;2023-07-20T15:09:42;26.07;54.66
72202;SHT30;60105;54.956;73.412;2023-07-20T15:12:44;25.92;55.81
72202;SHT30;60105;54.956;73.412;2023-07-20T15:15:45;25.75;55.77
72202;SHT30;60105;54.956;73.412;2023-07-20T15:18:46;25.66;56.64
72202;SHT30;60105;54.956;73.412;2023-07-20T15:22:26;25.53;56.99
72202;SHT30;60105;54.956;73.412;2023-07-20T15:25:27;25.39;57.78
72202;SHT30;60105;54.956;73.412;2023-07-20T15:28:30;25.28;57.59
72202;SHT30;60105;54.956;73.412;2023-07-20T15:31:32;25.20;58.93
72202;SHT30;60105;54.956;73.412;2023-07-20T15:34:33;25.08;59.12
72202;SHT30;60105;54.956;73.412;2023-07-20T15:37:34;25.04;59.44
72202;SHT30;60105;54.956;73.412;2023-07-20T15:40:37;24.97;59.12
72202;SHT30;60105;54.956;73.412;2023-07-20T15:43:43;24.90;59.85
72202;SHT30;60105;54.956;73.412;2023-07-20T15:47:25;24.80;60.36
72202;SHT30;60105;54.956;73.412;2023-07-20T15:50:27;24.71;60.20
72202;SHT30;60105;54.956;73.412;2023-07-20T15:53:28;24.71;60.51
72202;SHT30;60105;54.956;73.412;2023-07-20T15:56:29;24.64;61.01
72202;SHT30;60105;54.956;73.412;2023-07-20T15:59:31;24.55;61.25
72202;SHT30;60105;54.956;73.412;2023-07-20T16:02:32;24.48;61.58
72202;SHT30;60105;54.956;73.412;2023-07-20T16:05:34;24.39;61.88
72202;SHT30;60105;54.956;73.412;2023-07-20T16:08:36;24.35;62.74
72202;SHT30;60105;54.956;73.412;2023-07-20T16:11:37;24.25;62.63
72202;SHT30;60105;54.956;73.412;2023-07-20T16:14:39;24.19;62.78
72202;SHT30;60105;54.956;73.412;2023-07-20T16:17:40;24.18;63.50
72202;SHT30;60105;54.956;73.412;2023-07-20T16:20:42;24.09;63.27
72202;SHT30;60105;54.956;73.412;2023-07-20T16:23:44;24.04;63.23
72202;SHT30;60105;54.956;73.412;2023-07-20T16:27:24;24.01;63.35
72202;SHT30;60105;54.956;73.412;2023-07-20T16:30:28;23.98;63.43
72202;SHT30;60105;54.956;73.412;2023-07-20T16:33:29;23.98;63.37
72202;SHT30;60105;54.956;73.412;2023-07-20T16:36:30;23.94;63.23
72202;SHT30;60105;54.956;73.412;2023-07-20T16:39:34;23.94;63.55
72202;SHT30;60105;54.956;73.412;2023-07-20T16:42:41;23.91;63.80
72202;SHT30;60105;54.956;73.412;2023-07-20T16:45:43;23.86;63.75
72202;SHT30;60105;54.956;73.412;2023-07-20T16:48:45;23.84;64.16
72202;SHT30;60105;54.956;73.412;2023-07-20T16:52:26;23.77;63.99
72202;SHT30;60105;54.956;73.412;2023-07-20T16:55:27;23.71;64.28
72202;SHT30;60105;54.956;73.412;2023-07-20T16:58:29;23.60;64.86
72202;SHT30;60105;54.956;73.412;2023-07-20T17:01:31;23.57;64.56
72202;SHT30;60105;54.956;73.412;2023-07-20T17:04:47;23.49;65.12
72202;SHT30;60105;54.956;73.412;2023-07-20T17:07:49;23.44;64.59
72202;SHT30;60105;54.956;73.412;2023-07-20T17:10:56;23.40;65.17
72202;SHT30;60105;54.956;73.412;2023-07-20T17:13:57;23.36;65.66
72202;SHT30;60105;54.956;73.412;2023-07-20T17:17:25;23.28;65.37
72202;SHT30;60105;54.956;73.412;2023-07-20T17:20:27;23.23;65.24
72202;SHT30;60105;54.956;73.412;2023-07-20T17:23:31;23.19;65.44
72202;SHT30;60105;54.956;73.412;2023-07-20T17:26:32;23.16;65.20
72202;SHT30;60105;54.956;73.412;2023-07-20T17:29:34;23.09;65.57
72202;SHT30;60105;54.956;73.412;2023-07-20T17:32:36;23.03;65.59
72202;SHT30;60105;54.956;73.412;2023-07-20T17:35:37;23.00;65.16
72202;SHT30;60105;54.956;73.412;2023-07-20T17:38:39;22.92;64.90
72202;SHT30;60105;54.956;73.412;2023-07-20T17:41:41;22.95;65.13
72202;SHT30;60105;54.956;73.412;2023-07-20T17:44:42;22.86;65.76
72202;SHT30;60105;54.956;73.412;2023-07-20T17:47:44;22.81;65.80
72202;SHT30;60105;54.956;73.412;2023-07-20T17:50:48;22.79;65.42
72202;SHT30;60105;54.956;73.412;2023-07-20T17:53:50;22.75;66.01
72202;SHT30;60105;54.956;73.412;2023-07-20T17:57:25;22.72;65.15
72202;SHT30;60105;54.956;73.412;2023-07-20T18:00:27;22.71;64.92
72202;SHT30;60105;54.956;73.412;2023-07-20T18:03:29;22.68;65.09
72202;SHT30;60105;54.956;73.412;2023-07-20T18:06:30;22.61;65.44
72202;SHT30;60105;54.956;73.412;2023-07-20T18:09:31;22.59;64.83
72202;SHT30;60105;54.956;73.412;2023-07-20T18:12:33;22.52;65.75
72202;SHT30;60105;54.956;73.412;2023-07-20T18:15:34;22.45;65.24
72202;SHT30;60105;54.956;73.412;2023-07-20T18:18:36;22.48;65.98
72202;SHT30;60105;54.956;73.412;2023-07-20T18:21:37;22.47;65.66
72202;SHT30;60105;54.956;73.412;2023-07-20T18:24:38;22.43;65.47
72202;SHT30;60105;54.956;73.412;2023-07-20T18:27:39;22.36;65.85
72202;SHT30;60105;54.956;73.412;2023-07-20T18:30:42;22.31;65.10
72202;SHT30;60105;54.956;73.412;2023-07-20T18:33:43;22.34;65.27
72202;SHT30;60105;54.956;73.412;2023-07-20T18:36:54;22.31;65.58
72202;SHT30;60105;54.956;73.412;2023-07-20T18:39:55;22.28;65.25
72202;SHT30;60105;54.956;73.412;2023-07-20T18:42:57;22.20;65.82
72202;SHT30;60105;54.956;73.412;2023-07-20T18:45:58;22.18;65.45
72202;SHT30;60105;54.956;73.412;2023-07-20T18:48:59;22.22;65.03
72202;SHT30;60105;54.956;73.412;2023-07-20T18:52:25;22.18;65.84
72202;SHT30;60105;54.956;73.412;2023-07-20T18:55:26;22.10;66.11
72202;SHT30;60105;54.956;73.412;2023-07-20T18:58:28;22.10;66.36
72202;SHT30;60105;54.956;73.412;2023-07-20T19:01:30;22.04;66.31
72202;SHT30;60105;54.956;73.412;2023-07-20T19:04:31;22.01;66.80
72202;SHT30;60105;54.956;73.412;2023-07-20T19:07:32;21.96;67.00
72202;SHT30;60105;54.956;73.412;2023-07-20T19:10:34;21.90;66.87
72202;SHT30;60105;54.956;73.412;2023-07-20T19:13:35;21.80;67.16
72202;SHT30;60105;54.956;73.412;2023-07-20T19:16:37;21.73;67.46
72202;SHT30;60105;54.956;73.412;2023-07-20T19:19:38;21.70;67.56
72202;SHT30;60105;54.956;73.412;2023-07-20T19:22:40;21.67;67.55